createdAt,value
2023-05-16T00:01:19.499Z,102054.69
2023-05-16T00:03:46.245Z,102052.41
2023-05-16T00:06:15.651Z,102059.59
2023-05-16T00:08:44.668Z,102052.97
2023-05-16T00:11:13.467Z,102059.59
2023-05-16T00:13:42.997Z,102063.19
2023-05-16T00:16:10.002Z,102070.03
2023-05-16T00:18:39.655Z,102066.91
2023-05-16T00:21:08.447Z,102071.72
2023-05-16T00:23:34.960Z,102066.97
2023-05-16T00:26:03.996Z,102069.53
2023-05-16T00:28:35.388Z,102066.31
2023-05-16T00:31:01.975Z,102062.56
2023-05-16T00:33:31.145Z,102059.19
2023-05-16T00:36:00.330Z,102053.91
2023-05-16T00:38:29.258Z,102060.66
2023-05-16T00:40:55.811Z,102058.63
2023-05-16T00:43:22.690Z,102065.38
2023-05-16T00:45:51.732Z,102062.81
2023-05-16T00:48:18.803Z,102065.78
2023-05-16T00:50:47.684Z,102064.75
2023-05-16T00:53:14.160Z,102067.34
2023-05-16T00:55:40.933Z,102061.19
2023-05-16T00:58:11.488Z,102064.72
2023-05-16T01:00:40.540Z,102067.13
2023-05-16T01:03:09.795Z,102069.03
2023-05-16T01:05:36.427Z,102065.63
2023-05-16T01:08:02.978Z,102069.69
2023-05-16T01:11:12.510Z,102064.25
2023-05-16T01:14:13.012Z,102071.16
2023-05-16T01:16:47.156Z,102068.34
2023-05-16T01:19:36.137Z,102070.53
2023-05-16T01:22:16.444Z,102070.94
2023-05-16T01:25:01.417Z,102074.75
2023-05-16T01:27:29.933Z,102070.56
2023-05-16T01:29:57.247Z,102083.66
2023-05-16T01:32:24.683Z,102074.78
2023-05-16T01:34:52.124Z,102079.09
2023-05-16T01:37:29.807Z,102073.56
2023-05-16T01:40:00.502Z,102074.25
2023-05-16T01:42:32.968Z,102075.63
2023-05-16T01:45:15.086Z,102082.78
2023-05-16T01:47:49.898Z,102081.84
2023-05-16T01:50:18.655Z,102082.41
2023-05-16T01:52:50.122Z,102080.09
2023-05-16T01:55:30.774Z,102089.66
2023-05-16T01:58:02.959Z,102083.31
2023-05-16T02:00:29.519Z,102090.34
2023-05-16T02:02:58.468Z,102080.50
2023-05-16T02:05:29.087Z,102092.91
2023-05-16T02:08:01.727Z,102085.88
2023-05-16T02:10:30.555Z,102089.38
2023-05-16T02:12:57.185Z,102098.16
2023-05-16T02:15:23.815Z,102093.97
2023-05-16T02:17:50.587Z,102096.25
2023-05-16T02:20:17.355Z,102101.78
2023-05-16T02:22:44.508Z,102096.50
2023-05-16T02:25:13.322Z,102099.31
2023-05-16T02:27:43.130Z,102094.06
2023-05-16T02:30:15.374Z,102104.97
2023-05-16T02:32:45.028Z,102101.34
2023-05-16T02:35:12.125Z,102101.88
2023-05-16T02:37:38.959Z,102099.44
2023-05-16T02:40:11.032Z,102108.03
2023-05-16T02:42:40.319Z,102104.00
2023-05-16T02:45:09.243Z,102105.09
2023-05-16T02:47:35.821Z,102098.31
2023-05-16T02:50:05.117Z,102109.38
2023-05-16T02:52:33.962Z,102113.81
2023-05-16T02:57:32.183Z,102115.00
2023-05-16T02:59:59.528Z,102118.50
2023-05-16T03:02:26.329Z,102118.66
2023-05-16T03:04:56.125Z,102112.59
2023-05-16T03:07:23.043Z,102122.00
2023-05-16T03:09:51.768Z,102121.44
2023-05-16T03:12:18.230Z,102118.22
2023-05-16T03:14:45.333Z,102124.97
2023-05-16T03:17:16.673Z,102128.19
2023-05-16T03:19:48.068Z,102124.72
2023-05-16T03:22:18.092Z,102131.69
2023-05-16T03:24:44.931Z,102130.22
2023-05-16T03:27:12.112Z,102133.16
2023-05-16T03:29:38.676Z,102134.91
2023-05-16T03:32:06.207Z,102134.34
2023-05-16T03:34:35.372Z,102137.59
2023-05-16T03:37:04.502Z,102136.91
2023-05-16T03:39:33.622Z,102132.06
2023-05-16T03:42:00.070Z,102134.84
2023-05-16T03:44:29.057Z,102135.94
2023-05-16T03:46:56.029Z,102131.72
2023-05-16T03:49:27.259Z,102150.56
2023-05-16T03:51:53.999Z,102138.88
2023-05-16T03:54:20.562Z,102147.59
2023-05-16T03:56:51.947Z,102149.47
2023-05-16T03:59:21.560Z,102150.94
2023-05-16T04:01:50.081Z,102155.69
2023-05-16T04:04:16.565Z,102155.00
2023-05-16T04:06:45.388Z,102153.41
2023-05-16T04:09:12.158Z,102150.84
2023-05-16T04:11:38.817Z,102158.38
2023-05-16T04:14:05.475Z,102163.25
2023-05-16T04:16:34.322Z,102156.63
2023-05-16T04:19:01.181Z,102160.69
2023-05-16T04:21:27.733Z,102159.63
2023-05-16T04:23:54.258Z,102162.84
2023-05-16T04:26:22.839Z,102167.47
2023-05-16T04:28:52.040Z,102156.84
2023-05-16T04:31:18.725Z,102170.84
2023-05-16T04:33:45.969Z,102171.28
2023-05-16T04:36:14.814Z,102167.53
2023-05-16T04:38:41.857Z,102176.56
2023-05-16T04:41:08.498Z,102178.06
2023-05-16T04:43:35.180Z,102180.50
2023-05-16T04:46:09.974Z,102180.38
2023-05-16T04:48:38.803Z,102184.41
2023-05-16T04:51:05.401Z,102187.38
2023-05-16T04:53:32.007Z,102185.25
2023-05-16T04:56:00.788Z,102192.53
2023-05-16T04:58:27.277Z,102189.47
2023-05-16T05:00:55.799Z,102188.00
2023-05-16T05:03:24.824Z,102193.63
2023-05-16T05:05:54.204Z,102191.22
2023-05-16T05:08:23.956Z,102192.69
2023-05-16T05:10:55.193Z,102193.09
2023-05-16T05:13:24.112Z,102198.56
2023-05-16T05:15:52.322Z,102200.19
2023-05-16T05:18:21.382Z,102198.28
2023-05-16T05:20:47.924Z,102205.19
2023-05-16T05:23:14.422Z,102203.19
2023-05-16T05:25:43.942Z,102203.72
2023-05-16T05:28:10.454Z,102203.47
2023-05-16T05:30:37.499Z,102201.06
2023-05-16T05:33:04.150Z,102208.53
2023-05-16T05:35:30.910Z,102205.66
2023-05-16T05:37:57.449Z,102208.66
2023-05-16T05:40:25.472Z,102217.28
2023-05-16T05:42:52.024Z,102218.25
2023-05-16T05:45:18.540Z,102220.16
2023-05-16T05:47:49.842Z,102214.78
2023-05-16T05:50:16.616Z,102218.47
2023-05-16T05:52:48.170Z,102220.63
2023-05-16T05:55:17.089Z,102223.09
2023-05-16T05:57:43.565Z,102226.31
2023-05-16T06:00:11.528Z,102225.81
2023-05-16T06:02:42.673Z,102225.94
2023-05-16T06:05:09.725Z,102227.41
2023-05-16T06:07:36.367Z,102236.44
2023-05-16T06:10:05.442Z,102234.03
2023-05-16T06:12:34.104Z,102237.25
2023-05-16T06:15:03.066Z,102232.34
2023-05-16T06:17:31.680Z,102241.63
2023-05-16T06:20:02.831Z,102241.34
2023-05-16T06:22:34.091Z,102243.94
2023-05-16T06:25:00.809Z,102241.22
2023-05-16T06:27:27.348Z,102244.53
2023-05-16T06:29:54.181Z,102250.78
2023-05-16T06:32:20.817Z,102250.41
2023-05-16T06:34:49.530Z,102243.16
2023-05-16T06:37:18.356Z,102251.19
2023-05-16T06:39:44.957Z,102251.31
2023-05-16T06:42:13.830Z,102255.25
2023-05-16T06:44:42.571Z,102250.53
2023-05-16T06:47:11.404Z,102255.72
2023-05-16T06:49:47.259Z,102253.41
2023-05-16T06:52:13.856Z,102265.03
2023-05-16T06:54:40.365Z,102257.75
2023-05-16T06:57:08.561Z,102262.16
2023-05-16T06:59:35.972Z,102259.84
2023-05-16T07:02:02.499Z,102256.81
2023-05-16T07:04:29.020Z,102267.34
2023-05-16T07:06:55.753Z,102257.91
2023-05-16T07:09:22.520Z,102263.50
2023-05-16T07:11:49.041Z,102265.28
2023-05-16T07:14:15.636Z,102260.06
2023-05-16T07:16:42.284Z,102262.34
2023-05-16T07:19:13.945Z,102272.72
2023-05-16T07:21:42.746Z,102277.25
2023-05-16T07:24:09.277Z,102269.69
2023-05-16T07:26:38.453Z,102268.31
2023-05-16T07:29:07.400Z,102274.69
2023-05-16T07:31:36.358Z,102279.34
2023-05-16T07:34:05.254Z,102279.69
2023-05-16T07:36:36.990Z,102276.19
2023-05-16T07:39:06.924Z,102284.03
2023-05-16T07:41:33.587Z,102275.38
2023-05-16T07:44:02.539Z,102269.59
2023-05-16T07:46:29.843Z,102274.03
2023-05-16T07:49:01.375Z,102269.25
2023-05-16T07:51:28.826Z,102273.47
2023-05-16T07:53:55.527Z,102275.47
2023-05-16T07:56:22.767Z,102283.63
2023-05-16T07:58:50.434Z,102281.50
2023-05-16T08:01:21.835Z,102297.47
2023-05-16T08:03:50.894Z,102303.31
2023-05-16T08:06:17.562Z,102313.47
2023-05-16T08:08:44.198Z,102319.38
2023-05-16T08:11:13.070Z,102321.69
2023-05-16T08:13:41.860Z,102323.97
2023-05-16T08:16:08.548Z,102308.84
2023-05-16T08:18:35.129Z,102313.19
2023-05-16T08:21:03.865Z,102311.00
2023-05-16T08:23:30.518Z,102315.50
2023-05-16T08:25:57.248Z,102305.06
2023-05-16T08:28:24.502Z,102300.31
2023-05-16T08:30:51.176Z,102306.06
2023-05-16T08:33:20.073Z,102305.19
2023-05-16T08:35:49.490Z,102295.84
2023-05-16T08:38:16.266Z,102297.63
2023-05-16T08:40:45.625Z,102289.88
2023-05-16T08:43:16.372Z,102284.13
2023-05-16T08:45:46.033Z,102282.97
2023-05-16T08:48:14.360Z,102281.63
2023-05-16T08:50:42.885Z,102278.16
2023-05-16T08:53:12.142Z,102282.88
2023-05-16T08:55:41.501Z,102282.09
2023-05-16T08:58:08.823Z,102286.25
2023-05-16T09:00:38.414Z,102298.25
2023-05-16T09:03:07.327Z,102303.44
2023-05-16T09:05:34.812Z,102294.97
2023-05-16T09:08:01.572Z,102299.44
2023-05-16T09:10:28.133Z,102301.63
2023-05-16T09:12:57.004Z,102305.97
2023-05-16T09:15:23.665Z,102298.47
2023-05-16T09:17:52.734Z,102294.56
2023-05-16T09:20:24.498Z,102297.34
2023-05-16T09:22:57.798Z,102291.81
2023-05-16T09:25:30.801Z,102294.34
2023-05-16T09:28:04.493Z,102302.66
2023-05-16T09:30:38.853Z,102301.50
2023-05-16T09:33:07.047Z,102290.84
2023-05-16T09:35:44.780Z,102293.88
2023-05-16T09:38:22.548Z,102294.97
2023-05-16T09:40:50.583Z,102289.22
2023-05-16T09:43:18.318Z,102304.94
2023-05-16T09:45:50.902Z,102303.28
2023-05-16T09:48:18.350Z,102303.97
2023-05-16T09:50:54.527Z,102303.97
2023-05-16T09:53:30.978Z,102299.63
2023-05-16T09:56:04.091Z,102307.88
2023-05-16T09:58:32.187Z,102288.88
2023-05-16T10:01:04.978Z,102299.38
2023-05-16T10:03:36.954Z,102300.84
2023-05-16T10:06:07.239Z,102294.81
2023-05-16T10:08:36.545Z,102308.00
2023-05-16T10:11:06.793Z,102290.75
2023-05-16T10:13:37.940Z,102302.56
2023-05-16T10:16:11.321Z,102303.19
2023-05-16T10:18:39.861Z,102301.84
2023-05-16T10:21:14.924Z,102299.09
2023-05-16T10:23:44.959Z,102294.22
2023-05-16T10:26:19.560Z,102304.81
2023-05-16T10:28:50.961Z,102304.34
2023-05-16T10:31:21.318Z,102303.59
2023-05-16T10:33:47.892Z,102310.38
2023-05-16T10:36:17.344Z,102310.34
2023-05-16T10:38:45.898Z,102303.94
2023-05-16T10:41:15.634Z,102306.41
2023-05-16T10:43:47.436Z,102309.13
2023-05-16T10:46:14.461Z,102308.47
2023-05-16T10:48:43.661Z,102303.97
2023-05-16T10:51:24.835Z,102300.41
2023-05-16T10:53:52.728Z,102302.09
2023-05-16T10:56:26.163Z,102294.69
2023-05-16T10:58:57.152Z,102296.38
2023-05-16T11:01:24.996Z,102295.94
2023-05-16T11:03:57.677Z,102304.53
2023-05-16T11:06:29.643Z,102299.56
2023-05-16T11:09:10.227Z,102302.28
2023-05-16T11:11:54.378Z,102302.28
2023-05-16T11:14:38.547Z,102314.41
2023-05-16T11:17:14.256Z,102313.97
2023-05-16T11:19:52.058Z,102296.34
2023-05-16T11:22:33.601Z,102309.72
2023-05-16T11:25:00.137Z,102304.53
2023-05-16T11:27:32.203Z,102307.25
2023-05-16T11:30:19.911Z,102314.09
2023-05-16T11:32:49.252Z,102311.28
2023-05-16T11:35:19.578Z,102322.13
2023-05-16T11:37:47.568Z,102312.09
2023-05-16T11:40:17.176Z,102311.91
2023-05-16T11:42:48.152Z,102328.66
2023-05-16T11:45:15.803Z,102322.03
2023-05-16T11:47:47.553Z,102321.38
2023-05-16T11:50:21.151Z,102320.31
2023-05-16T11:52:53.597Z,102325.16
2023-05-16T11:55:39.435Z,102327.94
2023-05-16T11:58:08.385Z,102320.41
2023-05-16T12:00:39.567Z,102331.59
2023-05-16T12:03:06.572Z,102321.63
2023-05-16T12:05:38.561Z,102326.28
2023-05-16T12:08:10.740Z,102333.41
2023-05-16T12:10:42.474Z,102335.53
2023-05-16T12:13:11.587Z,102339.56
2023-05-16T12:15:41.041Z,102336.69
2023-05-16T12:18:11.105Z,102338.94
2023-05-16T12:20:37.913Z,102342.78
2023-05-16T12:23:11.060Z,102338.44
2023-05-16T12:25:41.961Z,102337.78
2023-05-16T12:28:11.904Z,102348.44
2023-05-16T12:30:42.878Z,102348.25
2023-05-16T12:33:11.706Z,102352.59
2023-05-16T12:35:46.611Z,102351.78
2023-05-16T12:38:15.283Z,102355.19
2023-05-16T12:40:43.955Z,102358.44
2023-05-16T12:43:14.633Z,102360.97
2023-05-16T12:45:43.046Z,102350.88
2023-05-16T12:48:15.225Z,102359.09
2023-05-16T12:50:42.104Z,102348.56
2023-05-16T12:53:13.977Z,102345.09
2023-05-16T12:55:43.834Z,102348.16
2023-05-16T12:58:13.647Z,102344.59
2023-05-16T13:00:40.392Z,102340.38
2023-05-16T13:03:10.712Z,102331.88
2023-05-16T13:05:39.628Z,102336.56
2023-05-16T13:08:06.249Z,102339.41
2023-05-16T13:10:47.177Z,102340.03
2023-05-16T13:13:21.971Z,102345.44
2023-05-16T13:15:58.970Z,102344.81
2023-05-16T13:18:27.956Z,102344.97
2023-05-16T13:20:54.755Z,102342.44
2023-05-16T13:23:21.285Z,102336.34
2023-05-16T13:25:50.381Z,102344.34
2023-05-16T13:28:16.935Z,102345.25
2023-05-16T13:30:45.962Z,102346.03
2023-05-16T13:33:15.019Z,102344.63
2023-05-16T13:35:45.948Z,102352.38
2023-05-16T13:38:12.461Z,102357.09
2023-05-16T13:40:39.016Z,102351.28
2023-05-16T13:43:06.670Z,102353.91
2023-05-16T13:45:37.486Z,102347.28
2023-05-16T13:48:04.583Z,102351.81
2023-05-16T13:50:34.156Z,102344.78
2023-05-16T13:53:00.946Z,102337.56
2023-05-16T13:55:28.206Z,102343.03
2023-05-16T13:57:57.425Z,102343.91
2023-05-16T14:00:43.238Z,102343.19
2023-05-16T14:03:10.999Z,102352.03
2023-05-16T14:05:43.467Z,102346.63
2023-05-16T14:08:12.221Z,102344.81
2023-05-16T14:10:41.239Z,102346.09
2023-05-16T14:13:07.854Z,102343.84
2023-05-16T14:15:36.692Z,102343.38
2023-05-16T14:18:04.477Z,102346.75
2023-05-16T14:20:31.833Z,102354.00
2023-05-16T14:23:01.969Z,102350.75
2023-05-16T14:25:29.116Z,102357.22
2023-05-16T14:27:58.342Z,102351.13
2023-05-16T14:30:25.634Z,102355.34
2023-05-16T14:32:52.534Z,102353.91
2023-05-16T14:35:19.934Z,102353.41
2023-05-16T14:37:46.432Z,102351.31
2023-05-16T14:40:13.064Z,102356.50
2023-05-16T14:42:41.902Z,102359.03
2023-05-16T14:45:11.228Z,102360.81
2023-05-16T14:47:40.364Z,102355.53
2023-05-16T14:50:07.650Z,102355.53
2023-05-16T14:52:34.176Z,102360.38
2023-05-16T14:55:01.054Z,102358.75
2023-05-16T14:57:27.581Z,102362.97
2023-05-16T14:59:58.688Z,102356.31
2023-05-16T15:02:30.697Z,102359.38
2023-05-16T15:04:59.653Z,102359.72
2023-05-16T15:07:28.531Z,102360.34
2023-05-16T15:09:55.065Z,102357.75
2023-05-16T15:12:25.276Z,102360.38
2023-05-16T15:14:54.409Z,102362.50
2023-05-16T15:17:21.177Z,102366.50
2023-05-16T15:19:50.175Z,102359.09
2023-05-16T15:22:18.834Z,102360.19
2023-05-16T15:24:47.851Z,102361.13
2023-05-16T15:27:19.227Z,102355.63
2023-05-16T15:29:48.382Z,102353.66
2023-05-16T15:32:15.789Z,102362.50
2023-05-16T15:34:42.528Z,102368.63
2023-05-16T15:37:11.154Z,102367.81
2023-05-16T15:39:42.583Z,102372.34
2023-05-16T15:42:11.420Z,102369.78
2023-05-16T15:44:40.686Z,102371.50
2023-05-16T15:47:07.768Z,102364.25
2023-05-16T15:49:36.752Z,102368.00
2023-05-16T15:52:06.106Z,102380.47
2023-05-16T15:54:32.721Z,102362.59
2023-05-16T15:57:01.823Z,102374.41
2023-05-16T15:59:28.525Z,102378.25
2023-05-16T16:01:55.137Z,102381.66
2023-05-16T16:04:26.361Z,102378.94
2023-05-16T16:06:55.494Z,102384.41
2023-05-16T16:09:22.016Z,102377.94
2023-05-16T16:11:49.769Z,102377.13
2023-05-16T16:14:16.280Z,102373.56
2023-05-16T16:16:42.885Z,102377.44
2023-05-16T16:19:11.981Z,102375.50
2023-05-16T16:21:39.027Z,102374.34
2023-05-16T16:24:05.825Z,102385.31
2023-05-16T16:26:34.733Z,102376.25
2023-05-16T16:29:04.204Z,102379.34
2023-05-16T16:31:30.886Z,102379.47
2023-05-16T16:33:57.510Z,102386.41
2023-05-16T16:36:28.816Z,102386.06
2023-05-16T16:38:55.382Z,102383.34
2023-05-16T16:41:21.974Z,102388.19
2023-05-16T16:43:48.492Z,102386.41
2023-05-16T16:46:17.327Z,102395.31
2023-05-16T16:48:46.523Z,102404.50
2023-05-16T16:51:15.477Z,102398.56
2023-05-16T16:53:42.746Z,102406.78
2023-05-16T16:56:09.362Z,102398.06
2023-05-16T16:58:35.946Z,102404.53
2023-05-16T17:01:02.533Z,102414.19
2023-05-16T17:03:29.157Z,102406.75
2023-05-16T17:05:58.773Z,102409.16
2023-05-16T17:08:25.457Z,102413.81
2023-05-16T17:10:54.495Z,102406.84
2023-05-16T17:13:21.018Z,102418.59
2023-05-16T17:15:49.804Z,102418.09
2023-05-16T17:18:16.459Z,102411.81
2023-05-16T17:20:45.591Z,102419.88
2023-05-16T17:23:12.254Z,102412.94
2023-05-16T17:25:42.014Z,102415.03
2023-05-16T17:28:08.580Z,102420.50
2023-05-16T17:30:35.221Z,102423.72
2023-05-16T17:33:06.501Z,102430.50
2023-05-16T17:35:33.119Z,102433.06
2023-05-16T17:37:59.739Z,102423.41
2023-05-16T17:40:26.261Z,102424.06
2023-05-16T17:42:55.176Z,102425.84
2023-05-16T17:45:21.725Z,102427.63
2023-05-16T17:47:48.747Z,102420.97
2023-05-16T17:50:18.796Z,102427.91
2023-05-16T17:52:46.035Z,102434.84
2023-05-16T17:55:15.132Z,102434.69
2023-05-16T17:57:44.030Z,102442.13
2023-05-16T18:00:14.898Z,102439.19
2023-05-16T18:02:41.561Z,102450.31
2023-05-16T18:05:08.630Z,102450.78
2023-05-16T18:07:37.456Z,102452.53
2023-05-16T18:10:04.681Z,102452.72
2023-05-16T18:12:33.424Z,102466.94
2023-05-16T18:15:02.977Z,102463.09
2023-05-16T18:17:33.206Z,102457.78
2023-05-16T18:20:09.433Z,102463.09
2023-05-16T18:22:39.290Z,102470.97
2023-05-16T18:25:07.066Z,102466.47
2023-05-16T18:27:36.824Z,102466.13
2023-05-16T18:30:09.131Z,102469.78
2023-05-16T18:32:38.337Z,102468.44
2023-05-16T18:35:08.754Z,102467.56
2023-05-16T18:37:44.204Z,102472.88
2023-05-16T18:40:11.530Z,102467.88
2023-05-16T18:42:38.130Z,102471.72
2023-05-16T18:45:04.942Z,102467.31
2023-05-16T18:47:31.615Z,102480.16
2023-05-16T18:49:58.250Z,102477.22
2023-05-16T18:52:24.754Z,102474.09
2023-05-16T18:54:52.455Z,102477.81
2023-05-16T18:57:19.044Z,102478.38
2023-05-16T18:59:45.977Z,102473.94
2023-05-16T19:02:15.105Z,102483.09
2023-05-16T19:04:41.733Z,102481.25
2023-05-16T19:07:10.678Z,102482.66
2023-05-16T19:09:37.228Z,102493.66
2023-05-16T19:12:06.537Z,102492.81
2023-05-16T19:14:33.101Z,102496.78
2023-05-16T19:16:59.724Z,102500.56
2023-05-16T19:19:26.565Z,102501.31
2023-05-16T19:21:53.439Z,102504.47
2023-05-16T19:24:20.037Z,102506.78
2023-05-16T19:26:48.893Z,102515.50
2023-05-16T19:29:19.048Z,102515.03
2023-05-16T19:31:45.563Z,102525.06
2023-05-16T19:34:12.148Z,102516.81
2023-05-16T19:36:43.379Z,102520.78
2023-05-16T19:39:12.393Z,102519.31
2023-05-16T19:41:38.925Z,102520.94
2023-05-16T19:44:07.904Z,102521.66
2023-05-16T19:46:34.619Z,102530.59
2023-05-16T19:49:01.353Z,102521.78
2023-05-16T19:51:40.876Z,102522.63
2023-05-16T19:54:08.696Z,102527.78
2023-05-16T19:56:35.273Z,102518.69
2023-05-16T19:59:01.826Z,102528.41
2023-05-16T20:01:31.859Z,102532.34
2023-05-16T20:03:58.960Z,102528.31
2023-05-16T20:06:28.113Z,102525.88
2023-05-16T20:08:57.026Z,102525.31
2023-05-16T20:11:23.659Z,102530.19
2023-05-16T20:13:50.387Z,102526.28
2023-05-16T20:16:21.799Z,102534.38
2023-05-16T20:18:48.400Z,102526.56
2023-05-16T20:21:17.344Z,102528.31
2023-05-16T20:23:44.056Z,102530.88
2023-05-16T20:26:14.727Z,102529.66
2023-05-16T20:28:44.957Z,102527.88
2023-05-16T20:31:11.673Z,102532.91
2023-05-16T20:33:40.738Z,102527.88
2023-05-16T20:36:07.846Z,102532.22
2023-05-16T20:38:34.392Z,102541.81
2023-05-16T20:41:00.978Z,102540.06
2023-05-16T20:43:27.567Z,102549.38
2023-05-16T20:45:54.210Z,102546.97
2023-05-16T20:48:26.027Z,102543.84
2023-05-16T20:50:55.240Z,102550.31
2023-05-16T20:53:24.845Z,102543.97
2023-05-16T20:55:51.414Z,102550.84
2023-05-16T20:58:20.534Z,102557.91
2023-05-16T21:00:49.416Z,102558.00
2023-05-16T21:03:16.163Z,102557.19
2023-05-16T21:05:42.650Z,102555.16
2023-05-16T21:08:11.451Z,102558.69
2023-05-16T21:10:40.275Z,102557.31
2023-05-16T21:13:06.991Z,102565.41
2023-05-16T21:15:33.569Z,102566.34
2023-05-16T21:18:02.318Z,102566.75
2023-05-16T21:20:30.080Z,102566.22
2023-05-16T21:23:01.231Z,102560.53
2023-05-16T21:25:32.593Z,102564.19
2023-05-16T21:28:00.181Z,102566.19
2023-05-16T21:30:26.716Z,102575.63
2023-05-16T21:32:54.341Z,102573.22
2023-05-16T21:35:20.979Z,102570.63
2023-05-16T21:37:50.004Z,102572.38
2023-05-16T21:40:25.302Z,102569.94
2023-05-16T21:42:54.573Z,102567.66
2023-05-16T21:45:21.231Z,102568.84
2023-05-16T21:47:50.173Z,102573.31
2023-05-16T21:50:19.153Z,102578.69
2023-05-16T21:52:48.435Z,102580.81
2023-05-16T21:55:15.118Z,102577.59
2023-05-16T21:57:41.656Z,102578.50
2023-05-16T22:00:09.871Z,102575.25
2023-05-16T22:02:38.902Z,102578.09
2023-05-16T22:05:06.246Z,102584.13
2023-05-16T22:07:33.065Z,102589.41
2023-05-16T22:09:59.907Z,102591.28
2023-05-16T22:12:27.403Z,102588.84
2023-05-16T22:14:54.478Z,102591.69
2023-05-16T22:17:21.288Z,102588.41
2023-05-16T22:19:48.106Z,102586.94
2023-05-16T22:22:14.854Z,102584.50
2023-05-16T22:24:43.960Z,102585.31
2023-05-16T22:27:10.519Z,102581.22
2023-05-16T22:29:44.334Z,102580.41
2023-05-16T22:32:15.697Z,102583.13
2023-05-16T22:34:47.071Z,102590.94
2023-05-16T22:37:16.431Z,102593.50
2023-05-16T22:39:45.678Z,102600.50
2023-05-16T22:42:16.954Z,102592.94
2023-05-16T22:44:45.943Z,102594.94
2023-05-16T22:47:12.389Z,102604.50
2023-05-16T22:49:38.887Z,102603.69
2023-05-16T22:52:05.696Z,102603.13
2023-05-16T22:54:34.723Z,102594.91
2023-05-16T22:57:01.266Z,102604.72
2023-05-16T22:59:27.808Z,102604.94
2023-05-16T23:01:56.862Z,102602.66
2023-05-16T23:04:23.725Z,102614.75
2023-05-16T23:06:52.729Z,102608.25
2023-05-16T23:09:21.596Z,102610.25
2023-05-16T23:11:48.064Z,102604.53
2023-05-16T23:14:14.736Z,102607.44
2023-05-16T23:16:41.212Z,102601.88
2023-05-16T23:19:09.442Z,102602.94
2023-05-16T23:21:36.527Z,102597.13
2023-05-16T23:24:03.132Z,102605.75
2023-05-16T23:26:32.362Z,102611.81
2023-05-16T23:29:03.720Z,102618.00
2023-05-16T23:31:32.853Z,102620.66
2023-05-16T23:34:02.063Z,102623.22
2023-05-16T23:36:33.640Z,102626.72
2023-05-16T23:39:00.169Z,102626.84
2023-05-16T23:41:28.932Z,102621.03
2023-05-16T23:44:00.449Z,102624.88
2023-05-16T23:46:29.413Z,102615.47
2023-05-16T23:48:58.345Z,102616.88
2023-05-16T23:51:24.852Z,102618.50
2023-05-16T23:53:51.433Z,102621.53
2023-05-16T23:56:17.921Z,102623.28
2023-05-16T23:58:44.418Z,102622.03
